Time;durP1;ratioP1;P1;durP2;ratioP2;P2;SDS_P1;SDS_P2;PMS_P1;PMS_P2;Temp;Humidity;BMP_temperature;BMP_pressure;BME280_temperature;BME280_humidity;BME280_pressure;Samples;Min_cycle;Max_cycle;Signal;HPM_P1;HPM_P2
2021/06/03 00:00:47;;;;;;;3.75;2.80;;;;;;;;;;4995000;28;20097;-73
2021/06/03 00:03:15;;;;;;;3.90;3.28;;;;;;;;;;4999162;28;20041;-72
2021/06/03 00:05:48;;;;;;;4.43;3.30;;;;;;;;;;5014562;28;20056;-74
2021/06/03 00:08:15;;;;;;;4.15;2.97;;;;;;;;;;5013516;28;20100;-74
2021/06/03 00:11:10;;;;;;;4.40;2.60;;;;;;;;;;5009262;28;20073;-72
2021/06/03 00:13:38;;;;;;;5.47;3.15;;;;;;;;;;5014131;28;20081;-73
2021/06/03 00:16:08;;;;;;;5.60;2.90;;;;;;;;;;5014211;28;20054;-73
2021/06/03 00:18:36;;;;;;;5.20;3.25;;;;;;;;;;5014243;28;20520;-73
2021/06/03 00:21:03;;;;;;;3.10;2.80;;;;;;;;;;5014490;28;20073;-73
2021/06/03 00:23:29;;;;;;;4.10;3.22;;;;;;;;;;5013788;28;20088;-73
2021/06/03 00:25:56;;;;;;;4.15;3.30;;;;;;;;;;5014297;28;20096;-73
2021/06/03 00:28:22;;;;;;;4.20;3.38;;;;;;;;;;5029296;28;20508;-73
2021/06/03 00:30:49;;;;;;;5.65;3.55;;;;;;;;;;5012820;28;20092;-73
2021/06/03 00:33:16;;;;;;;3.97;3.45;;;;;;;;;;5028506;28;20096;-73
2021/06/03 00:35:43;;;;;;;5.22;3.22;;;;;;;;;;5029277;28;20467;-74
2021/06/03 00:38:10;;;;;;;5.38;3.50;;;;;;;;;;5011655;28;20081;-73
2021/06/03 00:40:37;;;;;;;7.18;3.70;;;;;;;;;;5013591;28;20049;-72
2021/06/03 00:43:05;;;;;;;3.50;3.08;;;;;;;;;;5028818;28;20128;-73
2021/06/03 00:45:34;;;;;;;4.10;3.00;;;;;;;;;;5013691;28;20085;-74
2021/06/03 00:48:01;;;;;;;4.32;3.10;;;;;;;;;;5013715;28;20084;-73
2021/06/03 00:50:30;;;;;;;4.93;3.53;;;;;;;;;;5013517;28;20081;-73
2021/06/03 00:52:57;;;;;;;3.85;3.20;;;;;;;;;;5013358;28;20088;-72
2021/06/03 00:55:24;;;;;;;6.60;3.80;;;;;;;;;;5013600;28;20080;-73
2021/06/03 00:57:50;;;;;;;4.25;3.58;;;;;;;;;;5013401;28;20501;-73
2021/06/03 01:00:18;;;;;;;4.18;3.35;;;;;;;;;;5013261;28;20068;-73
2021/06/03 01:02:44;;;;;;;3.42;3.13;;;;;;;;;;5013319;28;20081;-73
2021/06/03 01:05:14;;;;;;;4.80;3.05;;;;;;;;;;5012126;28;20156;-73
2021/06/03 01:07:40;;;;;;;3.75;3.03;;;;;;;;;;5013112;28;20177;-73
2021/06/03 01:10:48;;;;;;;5.05;3.47;;;;;;;;;;5012776;28;20516;-73
2021/06/03 01:13:39;;;;;;;3.60;3.03;;;;;;;;;;4970028;28;20066;-73
2021/06/03 01:16:07;;;;;;;3.95;3.33;;;;;;;;;;4971148;28;20161;-73
2021/06/03 01:18:38;;;;;;;5.03;3.20;;;;;;;;;;4998163;28;20081;-72
2021/06/03 01:21:11;;;;;;;7.65;3.35;;;;;;;;;;5011493;28;20551;-74
2021/06/03 01:23:44;;;;;;;3.78;3.05;;;;;;;;;;5020676;28;20068;-72
2021/06/03 01:26:14;;;;;;;3.97;3.40;;;;;;;;;;5012815;28;20084;-73
2021/06/03 01:28:41;;;;;;;5.65;3.22;;;;;;;;;;5014069;28;20077;-72
2021/06/03 01:31:08;;;;;;;7.10;3.47;;;;;;;;;;5011615;28;20137;-73
2021/06/03 01:33:48;;;;;;;4.32;3.40;;;;;;;;;;4952035;29;20065;-73
2021/06/03 01:36:17;;;;;;;4.90;3.42;;;;;;;;;;4936561;29;20086;-73
2021/06/03 01:38:44;;;;;;;4.78;3.22;;;;;;;;;;4936721;29;20086;-73
2021/06/03 01:41:12;;;;;;;6.32;3.15;;;;;;;;;;4936247;29;20086;-73
2021/06/03 01:43:41;;;;;;;5.10;3.60;;;;;;;;;;4952145;29;20082;-73
2021/06/03 01:46:08;;;;;;;7.18;4.05;;;;;;;;;;4935926;29;20089;-73
2021/06/03 01:48:35;;;;;;;4.20;3.60;;;;;;;;;;4952317;28;20052;-73
2021/06/03 01:51:05;;;;;;;3.38;3.08;;;;;;;;;;4951950;28;20082;-73
2021/06/03 01:53:31;;;;;;;3.55;3.25;;;;;;;;;;4951910;29;20126;-73
2021/06/03 01:56:04;;;;;;;4.57;3.63;;;;;;;;;;4951956;29;20087;-73
2021/06/03 01:58:31;;;;;;;;;;;;;;;;;;4952966;29;20130;-74
2021/06/03 02:00:58;;;;;;;5.05;3.63;;;;;;;;;;4951892;29;20380;-73
2021/06/03 02:03:26;;;;;;;5.47;3.45;;;;;;;;;;4951789;28;20513;-73
2021/06/03 02:05:54;;;;;;;7.82;3.90;;;;;;;;;;5012493;28;20088;-73
2021/06/03 02:08:21;;;;;;;5.70;4.10;;;;;;;;;;5027283;28;20510;-73
2021/06/03 02:10:48;;;;;;;5.57;4.53;;;;;;;;;;5027545;28;20192;-74
2021/06/03 02:13:45;;;;;;;5.65;3.70;;;;;;;;;;5012017;28;20080;-73
2021/06/03 02:16:37;;;;;;;4.88;3.60;;;;;;;;;;5007466;28;20089;-73
2021/06/03 02:19:09;;;;;;;5.53;3.50;;;;;;;;;;5012114;28;20085;-74
2021/06/03 02:21:36;;;;;;;5.78;3.38;;;;;;;;;;5011242;28;20493;-73
2021/06/03 02:24:05;;;;;;;4.57;3.25;;;;;;;;;;5026915;28;20053;-73
2021/06/03 02:26:36;;;;;;;6.25;3.63;;;;;;;;;;5012060;28;20484;-74
2021/06/03 02:29:03;;;;;;;5.95;3.85;;;;;;;;;;5012045;28;20096;-73
2021/06/03 02:31:31;;;;;;;3.38;3.08;;;;;;;;;;5010396;28;20424;-74
2021/06/03 02:33:58;;;;;;;4.82;3.30;;;;;;;;;;5026924;28;20084;-73
2021/06/03 02:36:27;;;;;;;6.28;3.35;;;;;;;;;;5027180;28;20100;-73
2021/06/03 02:38:54;;;;;;;3.53;3.15;;;;;;;;;;5011881;28;20085;-73
2021/06/03 02:41:21;;;;;;;4.15;3.38;;;;;;;;;;5004850;28;20096;-73
2021/06/03 02:43:48;;;;;;;4.70;3.25;;;;;;;;;;5007380;28;20046;-73
2021/06/03 02:46:16;;;;;;;6.32;3.40;;;;;;;;;;4992421;28;20417;-74
2021/06/03 02:48:42;;;;;;;6.43;3.20;;;;;;;;;;5007255;28;20130;-74
2021/06/03 02:51:10;;;;;;;4.15;3.60;;;;;;;;;;4991204;28;20493;-73
2021/06/03 02:53:38;;;;;;;4.60;3.92;;;;;;;;;;5006964;28;20052;-73
2021/06/03 02:56:05;;;;;;;3.83;3.45;;;;;;;;;;4992186;28;20081;-73
2021/06/03 02:58:32;;;;;;;5.97;3.53;;;;;;;;;;4992199;28;20125;-73
2021/06/03 03:00:59;;;;;;;5.53;3.85;;;;;;;;;;4992868;28;20050;-73
2021/06/03 03:03:26;;;;;;;4.57;3.67;;;;;;;;;;4995723;28;20421;-73
2021/06/03 03:05:52;;;;;;;5.53;3.70;;;;;;;;;;5011080;28;20089;-73
2021/06/03 03:08:19;;;;;;;4.75;3.80;;;;;;;;;;5011416;28;20078;-74
2021/06/03 03:10:48;;;;;;;3.88;3.40;;;;;;;;;;4996769;28;20502;-74
2021/06/03 03:13:16;;;;;;;4.97;3.40;;;;;;;;;;5015279;28;20085;-74
2021/06/03 03:15:43;;;;;;;3.60;3.30;;;;;;;;;;5014318;28;20470;-74
2021/06/03 03:18:10;;;;;;;4.07;3.35;;;;;;;;;;5015270;28;20483;-73
2021/06/03 03:20:38;;;;;;;5.93;3.95;;;;;;;;;;5015204;28;20406;-73
2021/06/03 03:23:06;;;;;;;4.90;3.97;;;;;;;;;;5013975;28;20136;-73
2021/06/03 03:25:34;;;;;;;5.28;3.63;;;;;;;;;;5015308;28;20132;-73
2021/06/03 03:28:00;;;;;;;5.57;3.72;;;;;;;;;;5015193;28;20054;-73
2021/06/03 03:30:28;;;;;;;5.20;3.38;;;;;;;;;;5014231;28;20046;-73
2021/06/03 03:32:55;;;;;;;4.15;3.85;;;;;;;;;;5012683;28;20054;-73
2021/06/03 03:35:22;;;;;;;4.93;3.60;;;;;;;;;;5014585;28;20104;-73
2021/06/03 03:37:49;;;;;;;6.18;4.07;;;;;;;;;;5023786;28;20050;-74
2021/06/03 03:40:22;;;;;;;5.38;3.42;;;;;;;;;;5014759;28;20056;-74
2021/06/03 03:42:49;;;;;;;7.32;3.40;;;;;;;;;;5014962;28;20590;-74
2021/06/03 03:45:17;;;;;;;4.72;3.85;;;;;;;;;;5014784;28;20037;-74
2021/06/03 03:47:43;;;;;;;4.18;3.30;;;;;;;;;;5030183;28;20211;-74
2021/06/03 03:50:12;;;;;;;5.88;3.30;;;;;;;;;;5014843;28;20058;-74
2021/06/03 03:52:39;;;;;;;6.80;3.65;;;;;;;;;;5013453;28;20081;-74
2021/06/03 03:55:06;;;;;;;4.45;3.45;;;;;;;;;;5014612;28;20076;-74
2021/06/03 03:57:34;;;;;;;6.80;3.63;;;;;;;;;;5013646;28;20050;-74
2021/06/03 04:00:01;;;;;;;4.15;3.50;;;;;;;;;;5013506;28;20132;-74
2021/06/03 04:02:27;;;;;;;4.13;3.53;;;;;;;;;;5014619;28;20058;-74
2021/06/03 04:04:54;;;;;;;5.85;3.90;;;;;;;;;;5014587;28;20085;-74
2021/06/03 04:07:20;;;;;;;4.15;3.75;;;;;;;;;;5014837;28;20088;-74
2021/06/03 04:09:47;;;;;;;4.63;3.50;;;;;;;;;;5013454;28;20077;-74
2021/06/03 04:12:13;;;;;;;3.88;3.47;;;;;;;;;;5013500;28;20085;-74
2021/06/03 04:14:40;;;;;;;4.60;3.65;;;;;;;;;;5014193;28;20393;-74
2021/06/03 04:17:06;;;;;;;4.65;3.60;;;;;;;;;;4994189;28;20058;-74
2021/06/03 04:19:33;;;;;;;8.48;4.03;;;;;;;;;;4994869;28;20046;-74
2021/06/03 04:22:01;;;;;;;3.78;3.38;;;;;;;;;;5009538;28;20077;-74
2021/06/03 04:24:28;;;;;;;4.10;3.50;;;;;;;;;;5005873;28;20115;-74
2021/06/03 04:26:55;;;;;;;4.63;3.50;;;;;;;;;;5014220;28;20544;-74
2021/06/03 04:29:21;;;;;;;4.05;3.30;;;;;;;;;;4997007;28;20095;-74
2021/06/03 04:31:48;;;;;;;4.78;3.47;;;;;;;;;;5012761;28;20054;-74
2021/06/03 04:34:15;;;;;;;4.88;3.33;;;;;;;;;;5028890;28;20132;-74
2021/06/03 04:36:41;;;;;;;5.05;3.60;;;;;;;;;;5012899;28;20104;-74
2021/06/03 04:39:08;;;;;;;4.88;3.15;;;;;;;;;;5013835;28;20085;-74
2021/06/03 04:41:34;;;;;;;3.47;3.17;;;;;;;;;;5014138;28;20081;-73
2021/06/03 04:44:01;;;;;;;3.58;3.28;;;;;;;;;;5014054;28;20081;-72
2021/06/03 04:46:28;;;;;;;5.25;3.22;;;;;;;;;;5014502;28;20133;-72
2021/06/03 04:48:55;;;;;;;6.18;3.47;;;;;;;;;;5013855;28;20046;-72
2021/06/03 04:51:21;;;;;;;6.25;3.78;;;;;;;;;;5013743;28;20053;-72
2021/06/03 04:53:48;;;;;;;3.50;3.20;;;;;;;;;;5013523;28;20045;-72
2021/06/03 04:56:14;;;;;;;3.25;2.95;;;;;;;;;;5013623;28;20141;-72
2021/06/03 04:58:41;;;;;;;3.67;3.03;;;;;;;;;;5008743;28;20073;-74
2021/06/03 05:01:08;;;;;;;5.35;3.50;;;;;;;;;;5007308;28;20469;-71
2021/06/03 05:03:34;;;;;;;5.47;3.75;;;;;;;;;;5012198;28;20153;-73
2021/06/03 05:06:01;;;;;;;3.67;3.30;;;;;;;;;;5012540;28;20496;-72
2021/06/03 05:08:28;;;;;;;3.67;3.15;;;;;;;;;;5013651;28;20049;-72
2021/06/03 05:10:54;;;;;;;6.40;3.70;;;;;;;;;;5013153;28;20050;-72
2021/06/03 05:13:21;;;;;;;5.03;3.63;;;;;;;;;;5013010;28;20111;-72
2021/06/03 05:15:47;;;;;;;3.42;3.13;;;;;;;;;;5013156;28;20085;-72
2021/06/03 05:18:14;;;;;;;3.92;3.53;;;;;;;;;;5013150;28;20397;-72
2021/06/03 05:20:41;;;;;;;4.03;3.42;;;;;;;;;;5012902;28;20473;-72
2021/06/03 05:23:07;;;;;;;4.82;3.80;;;;;;;;;;5012603;28;20077;-72
2021/06/03 05:25:34;;;;;;;6.72;3.97;;;;;;;;;;5012487;28;20074;-72
2021/06/03 05:28:01;;;;;;;3.70;3.33;;;;;;;;;;5011815;28;20080;-72
2021/06/03 05:30:28;;;;;;;9.20;3.75;;;;;;;;;;5010183;28;20587;-72
2021/06/03 05:32:56;;;;;;;4.35;3.60;;;;;;;;;;5010530;28;20092;-72
2021/06/03 05:35:23;;;;;;;3.88;3.40;;;;;;;;;;5010890;28;20548;-72
2021/06/03 05:37:50;;;;;;;5.20;3.10;;;;;;;;;;5025660;28;20078;-72
2021/06/03 05:40:20;;;;;;;4.95;3.45;;;;;;;;;;5025445;28;20046;-72
2021/06/03 05:42:48;;;;;;;3.70;3.28;;;;;;;;;;5010194;28;20074;-72
2021/06/03 05:45:15;;;;;;;4.75;3.55;;;;;;;;;;5025022;28;20455;-72
2021/06/03 05:47:42;;;;;;;5.35;3.92;;;;;;;;;;5010326;28;20077;-72
2021/06/03 05:50:11;;;;;;;5.93;3.45;;;;;;;;;;5007694;28;20595;-72
2021/06/03 05:52:38;;;;;;;5.32;3.50;;;;;;;;;;5009320;28;20084;-72
2021/06/03 05:55:06;;;;;;;4.55;3.55;;;;;;;;;;5010715;28;20077;-72
2021/06/03 05:57:32;;;;;;;6.45;3.85;;;;;;;;;;5010000;28;20084;-72
2021/06/03 05:59:59;;;;;;;3.97;3.53;;;;;;;;;;5010393;28;20081;-72
2021/06/03 06:02:41;;;;;;;4.63;3.75;;;;;;;;;;5010487;28;20132;-72
2021/06/03 06:07:56;;;;;;;3.80;3.45;;;;;;;;;;5010215;28;20072;-72
2021/06/03 06:10:23;;;;;;;5.43;3.90;;;;;;;;;;5009316;28;20767;-72
2021/06/03 06:12:50;;;;;;;3.58;3.28;;;;;;;;;;5009811;28;20076;-72
2021/06/03 06:15:16;;;;;;;4.47;3.40;;;;;;;;;;5010444;28;20070;-72
2021/06/03 06:17:43;;;;;;;5.65;4.13;;;;;;;;;;5010487;28;20058;-73
2021/06/03 06:20:11;;;;;;;5.25;3.35;;;;;;;;;;5010063;28;20111;-73
2021/06/03 06:22:38;;;;;;;4.43;3.97;;;;;;;;;;5008394;28;20344;-72
2021/06/03 06:25:05;;;;;;;4.65;3.83;;;;;;;;;;5024891;28;20133;-73
2021/06/03 06:27:32;;;;;;;5.65;4.72;;;;;;;;;;5009607;28;20484;-72
2021/06/03 06:29:58;;;;;;;6.63;4.00;;;;;;;;;;5009794;28;20085;-72
2021/06/03 06:32:26;;;;;;;4.15;3.70;;;;;;;;;;5024450;28;20077;-73
2021/06/03 06:34:53;;;;;;;4.82;3.60;;;;;;;;;;5009577;28;20045;-73
2021/06/03 06:37:19;;;;;;;5.20;3.33;;;;;;;;;;5009085;28;20053;-73
2021/06/03 06:39:46;;;;;;;3.80;3.45;;;;;;;;;;5009537;28;20081;-73
2021/06/03 06:42:12;;;;;;;5.90;3.70;;;;;;;;;;5009263;28;20089;-73
2021/06/03 06:44:39;;;;;;;3.65;3.13;;;;;;;;;;5009751;28;20085;-71
2021/06/03 06:47:06;;;;;;;4.13;3.20;;;;;;;;;;4977732;28;20128;-73
2021/06/03 06:49:33;;;;;;;4.60;3.40;;;;;;;;;;5019490;28;20084;-74
2021/06/03 06:51:59;;;;;;;3.38;2.97;;;;;;;;;;5026726;28;20050;-75
2021/06/03 06:54:26;;;;;;;4.32;3.00;;;;;;;;;;5017495;28;20336;-71
2021/06/03 06:56:53;;;;;;;7.18;3.72;;;;;;;;;;5000465;28;20098;-72
2021/06/03 06:59:19;;;;;;;4.47;3.25;;;;;;;;;;5000528;28;20082;-73
2021/06/03 07:01:46;;;;;;;4.63;2.95;;;;;;;;;;5002270;28;20081;-74
2021/06/03 07:04:12;;;;;;;3.45;3.10;;;;;;;;;;5000927;28;20049;-74
2021/06/03 07:06:39;;;;;;;5.05;2.85;;;;;;;;;;5002448;28;20088;-72
2021/06/03 07:09:06;;;;;;;4.57;2.90;;;;;;;;;;5003461;28;20081;-74
2021/06/03 07:11:42;;;;;;;3.58;2.90;;;;;;;;;;4997407;28;20083;-72
2021/06/03 07:14:13;;;;;;;4.38;3.30;;;;;;;;;;4999654;28;20054;-71
2021/06/03 07:16:40;;;;;;;7.70;3.42;;;;;;;;;;5015829;28;20069;-71
2021/06/03 07:19:06;;;;;;;3.80;3.40;;;;;;;;;;4998783;28;20049;-73
2021/06/03 07:21:33;;;;;;;4.15;3.20;;;;;;;;;;5018259;28;20046;-70
2021/06/03 07:24:00;;;;;;;5.95;2.70;;;;;;;;;;5005312;28;20405;-72
2021/06/03 07:26:26;;;;;;;3.58;2.95;;;;;;;;;;5008711;28;20082;-74
2021/06/03 07:28:53;;;;;;;4.13;2.83;;;;;;;;;;5018253;28;20062;-74
2021/06/03 07:31:20;;;;;;;4.88;3.13;;;;;;;;;;5021079;28;20454;-72
2021/06/03 07:33:47;;;;;;;3.75;3.45;;;;;;;;;;5003649;28;20112;-71
2021/06/03 07:36:14;;;;;;;3.22;2.88;;;;;;;;;;5004455;28;20050;-73
2021/06/03 07:38:40;;;;;;;4.05;3.20;;;;;;;;;;5003406;28;20042;-73
2021/06/03 07:41:11;;;;;;;3.58;3.25;;;;;;;;;;5009057;28;20073;-74
2021/06/03 07:43:38;;;;;;;6.32;3.22;;;;;;;;;;4987277;28;20088;-73
2021/06/03 07:46:05;;;;;;;4.82;3.10;;;;;;;;;;5004545;28;20045;-73
2021/06/03 07:48:31;;;;;;;4.25;2.80;;;;;;;;;;5005875;28;20173;-73
2021/06/03 07:50:59;;;;;;;4.45;3.25;;;;;;;;;;5007654;28;20077;-73
2021/06/03 07:53:25;;;;;;;4.53;3.03;;;;;;;;;;5005965;28;20084;-73
2021/06/03 07:55:52;;;;;;;3.38;2.90;;;;;;;;;;5007917;28;20108;-73
2021/06/03 07:58:19;;;;;;;3.63;2.50;;;;;;;;;;5006247;28;20088;-73
2021/06/03 08:00:46;;;;;;;2.92;2.70;;;;;;;;;;5023422;28;20049;-73
2021/06/03 08:03:13;;;;;;;4.03;2.95;;;;;;;;;;5006313;28;20476;-73
2021/06/03 08:05:40;;;;;;;3.72;3.42;;;;;;;;;;5007079;28;20045;-73
2021/06/03 08:08:06;;;;;;;5.65;3.13;;;;;;;;;;5004724;28;20046;-73
2021/06/03 08:10:35;;;;;;;4.70;2.90;;;;;;;;;;5019641;28;20046;-73
2021/06/03 08:13:03;;;;;;;5.72;2.90;;;;;;;;;;5006694;28;20100;-73
2021/06/03 08:15:30;;;;;;;3.97;2.72;;;;;;;;;;5009728;28;20164;-73
2021/06/03 08:17:57;;;;;;;5.20;2.78;;;;;;;;;;5007691;28;20100;-72
2021/06/03 08:20:28;;;;;;;6.05;3.63;;;;;;;;;;5018835;28;20050;-71
2021/06/03 08:22:55;;;;;;;4.60;2.88;;;;;;;;;;5006778;28;20085;-71
2021/06/03 08:25:22;;;;;;;3.47;2.80;;;;;;;;;;5005549;28;20046;-71
2021/06/03 08:27:48;;;;;;;6.80;3.22;;;;;;;;;;5007111;28;20078;-71
2021/06/03 08:30:16;;;;;;;3.65;3.00;;;;;;;;;;5020032;28;20149;-71
2021/06/03 08:32:46;;;;;;;3.88;3.08;;;;;;;;;;5021821;28;20118;-71
2021/06/03 08:35:15;;;;;;;3.88;2.70;;;;;;;;;;5006310;28;20050;-71
2021/06/03 08:37:43;;;;;;;2.97;2.78;;;;;;;;;;5005271;28;20050;-71
2021/06/03 08:40:11;;;;;;;5.32;2.65;;;;;;;;;;5006813;28;20078;-71
2021/06/03 08:42:38;;;;;;;3.30;2.83;;;;;;;;;;5005269;28;20081;-71
2021/06/03 08:45:06;;;;;;;3.33;2.72;;;;;;;;;;5006667;28;20121;-71
2021/06/03 08:47:33;;;;;;;2.83;2.60;;;;;;;;;;5006409;28;20081;-71
2021/06/03 08:50:01;;;;;;;3.50;2.60;;;;;;;;;;5006280;28;20428;-71
2021/06/03 08:52:28;;;;;;;3.45;2.70;;;;;;;;;;5004899;28;20056;-72
2021/06/03 08:54:55;;;;;;;3.00;2.80;;;;;;;;;;5006318;28;20133;-71
2021/06/03 08:57:22;;;;;;;3.88;2.33;;;;;;;;;;5007037;28;20104;-72
2021/06/03 08:59:49;;;;;;;3.15;2.33;;;;;;;;;;5020251;28;20050;-71
2021/06/03 09:02:16;;;;;;;6.60;2.53;;;;;;;;;;5026022;28;20119;-73
2021/06/03 09:04:49;;;;;;;4.43;2.10;;;;;;;;;;5023100;28;20137;-76
2021/06/03 09:07:34;;;;;;;3.55;2.45;;;;;;;;;;4997194;28;20337;-74
2021/06/03 09:10:28;;;;;;;4.20;2.45;;;;;;;;;;5046368;22;20037;-73
2021/06/03 09:13:12;;;;;;;5.07;2.55;;;;;;;;;;5037748;28;20067;-74
2021/06/03 09:15:41;;;;;;;2.78;2.50;;;;;;;;;;5026886;28;20088;-70
2021/06/03 09:18:09;;;;;;;4.00;2.58;;;;;;;;;;5022168;28;20076;-72
2021/06/03 09:20:37;;;;;;;3.72;2.47;;;;;;;;;;5031334;28;20077;-71
2021/06/03 09:23:05;;;;;;;2.55;2.03;;;;;;;;;;5029952;28;20419;-72
2021/06/03 09:25:39;;;;;;;5.28;2.78;;;;;;;;;;5031874;28;20081;-70
2021/06/03 09:28:25;;;;;;;4.65;2.45;;;;;;;;;;5046363;28;20542;-72
2021/06/03 09:31:02;;;;;;;2.63;2.30;;;;;;;;;;5031240;28;20088;-71
2021/06/03 09:33:47;;;;;;;4.07;2.53;;;;;;;;;;5031085;28;20053;-71
2021/06/03 09:36:17;;;;;;;2.78;2.50;;;;;;;;;;5031054;28;20084;-70
2021/06/03 09:39:00;;;;;;;2.75;2.10;;;;;;;;;;5031083;28;20056;-72
2021/06/03 09:41:28;;;;;;;2.90;2.22;;;;;;;;;;5031117;28;20451;-70
2021/06/03 09:44:08;;;;;;;3.72;2.88;;;;;;;;;;5031288;28;20088;-70
2021/06/03 09:46:48;;;;;;;3.20;2.20;;;;;;;;;;5045347;28;20080;-73
2021/06/03 09:49:19;;;;;;;3.90;2.47;;;;;;;;;;5030591;28;20420;-73
2021/06/03 09:51:47;;;;;;;4.82;2.90;;;;;;;;;;5030588;28;20120;-74
2021/06/03 09:54:16;;;;;;;4.63;2.03;;;;;;;;;;5030364;28;20081;-72
2021/06/03 09:56:50;;;;;;;4.70;2.30;;;;;;;;;;5030624;28;20088;-72
2021/06/03 09:59:34;;;;;;;4.82;2.00;;;;;;;;;;5028973;28;20590;-72
2021/06/03 10:02:06;;;;;;;3.67;2.17;;;;;;;;;;5033174;28;20475;-73
2021/06/03 10:04:42;;;;;;;4.18;2.40;;;;;;;;;;5031131;28;20087;-73
2021/06/03 10:07:14;;;;;;;3.10;2.30;;;;;;;;;;5030414;28;20141;-72
2021/06/03 10:09:45;;;;;;;;;;;;;;;;;;5030660;28;20041;-72
2021/06/03 10:12:37;;;;;;;3.10;2.03;;;;;;;;;;5030202;28;20303;-73
2021/06/03 10:15:19;;;;;;;;;;;;;;;;;;5024295;28;20095;-73
2021/06/03 10:18:00;;;;;;;4.57;2.17;;;;;;;;;;5030668;28;19921;-73
2021/06/03 10:20:36;;;;;;;2.97;1.63;;;;;;;;;;5030141;28;20092;-71
2021/06/03 10:23:05;;;;;;;2.85;1.60;;;;;;;;;;5030294;28;20045;-70
2021/06/03 10:25:34;;;;;;;1.70;1.60;;;;;;;;;;5030013;28;20077;-73
2021/06/03 10:28:13;;;;;;;2.40;1.75;;;;;;;;;;5032219;28;20118;-73
2021/06/03 10:30:49;;;;;;;3.10;1.92;;;;;;;;;;5029584;28;20046;-73
2021/06/03 10:33:21;;;;;;;2.40;1.60;;;;;;;;;;5030820;28;20053;-73
2021/06/03 10:35:51;;;;;;;3.17;1.98;;;;;;;;;;5045367;28;20048;-73
2021/06/03 10:38:18;;;;;;;2.17;1.80;;;;;;;;;;5030083;28;20053;-73
2021/06/03 10:40:48;;;;;;;3.03;2.30;;;;;;;;;;5045765;28;20080;-73
2021/06/03 10:43:15;;;;;;;1.92;1.70;;;;;;;;;;5027374;28;20089;-72
2021/06/03 10:45:43;;;;;;;2.58;1.92;;;;;;;;;;5028535;28;20137;-72
2021/06/03 10:48:10;;;;;;;4.18;1.70;;;;;;;;;;5027077;28;20081;-73
2021/06/03 10:50:37;;;;;;;1.80;1.55;;;;;;;;;;5028692;28;20080;-71
2021/06/03 10:53:14;;;;;;;3.05;1.67;;;;;;;;;;5028020;28;20150;-72
2021/06/03 10:55:43;;;;;;;2.90;1.90;;;;;;;;;;5026917;28;20072;-71
2021/06/03 10:58:11;;;;;;;2.22;1.40;;;;;;;;;;5028525;28;20085;-73
2021/06/03 11:00:43;;;;;;;1.98;1.80;;;;;;;;;;5043435;28;20096;-72
2021/06/03 11:03:14;;;;;;;3.28;1.75;;;;;;;;;;5028221;28;20442;-73
2021/06/03 11:05:46;;;;;;;4.28;1.92;;;;;;;;;;5028161;28;20080;-72
2021/06/03 11:08:25;;;;;;;2.38;1.98;;;;;;;;;;5027256;28;20072;-71
2021/06/03 11:10:52;;;;;;;2.38;1.92;;;;;;;;;;5029130;28;20080;-73
2021/06/03 11:13:20;;;;;;;2.58;1.55;;;;;;;;;;5029709;28;20054;-72
2021/06/03 11:16:14;;;;;;;3.25;1.60;;;;;;;;;;5033379;28;20045;-72
2021/06/03 11:18:49;;;;;;;2.42;1.77;;;;;;;;;;5027691;28;20443;-72
2021/06/03 11:21:34;;;;;;;2.10;1.50;;;;;;;;;;5030293;28;20046;-73
2021/06/03 11:24:03;;;;;;;1.83;1.33;;;;;;;;;;5034475;28;20049;-72
2021/06/03 11:26:39;;;;;;;3.60;1.90;;;;;;;;;;5033515;28;20080;-70
2021/06/03 11:29:07;;;;;;;3.25;1.67;;;;;;;;;;5033587;28;20045;-71
2021/06/03 11:31:34;;;;;;;2.55;1.42;;;;;;;;;;5032617;28;20081;-72
2021/06/03 11:34:07;;;;;;;4.75;2.05;;;;;;;;;;5033087;28;20140;-72
2021/06/03 11:36:35;;;;;;;2.70;1.50;;;;;;;;;;5034448;28;20168;-72
2021/06/03 11:39:07;;;;;;;2.33;1.50;;;;;;;;;;5034681;28;20061;-72
2021/06/03 11:41:39;;;;;;;2.72;1.65;;;;;;;;;;5048660;28;20177;-72
2021/06/03 11:44:14;;;;;;;4.43;1.80;;;;;;;;;;5033479;28;20053;-72
2021/06/03 11:46:50;;;;;;;1.88;1.33;;;;;;;;;;5032999;28;20079;-71
2021/06/03 11:49:39;;;;;;;4.65;1.83;;;;;;;;;;5035420;28;20504;-72
2021/06/03 11:52:19;;;;;;;2.78;2.38;;;;;;;;;;5034534;28;20073;-72
2021/06/03 11:54:57;;;;;;;5.57;2.30;;;;;;;;;;5033910;28;20053;-72
2021/06/03 11:57:28;;;;;;;5.05;2.00;;;;;;;;;;5036046;28;20408;-72
2021/06/03 12:00:04;;;;;;;4.70;2.33;;;;;;;;;;5034126;28;20267;-71
2021/06/03 12:02:35;;;;;;;5.40;2.28;;;;;;;;;;5035901;28;20111;-72
2021/06/03 12:05:11;;;;;;;3.97;2.03;;;;;;;;;;5051967;28;20439;-72
2021/06/03 12:07:47;;;;;;;5.03;2.15;;;;;;;;;;5037139;28;20077;-72
2021/06/03 12:10:16;;;;;;;1.92;1.50;;;;;;;;;;5032289;28;20512;-72
2021/06/03 12:12:43;;;;;;;3.25;2.05;;;;;;;;;;5032199;28;20088;-73
2021/06/03 12:15:24;;;;;;;4.22;2.20;;;;;;;;;;5032701;28;20053;-71
2021/06/03 12:17:56;;;;;;;4.10;1.90;;;;;;;;;;5032770;28;20095;-70
2021/06/03 12:20:25;;;;;;;2.55;2.30;;;;;;;;;;5031448;28;20057;-71
2021/06/03 12:22:52;;;;;;;4.30;2.47;;;;;;;;;;5013967;28;20500;-71
2021/06/03 12:25:19;;;;;;;3.03;2.22;;;;;;;;;;5013972;28;20099;-72
2021/06/03 12:27:47;;;;;;;4.05;2.53;;;;;;;;;;5015247;28;20081;-71
2021/06/03 12:30:21;;;;;;;2.55;2.10;;;;;;;;;;5033695;28;20077;-70
2021/06/03 12:33:11;;;;;;;4.45;2.15;;;;;;;;;;5033687;28;20499;-72
2021/06/03 12:35:48;;;;;;;3.47;2.10;;;;;;;;;;5030218;28;20359;-71
2021/06/03 12:38:35;;;;;;;2.08;1.90;;;;;;;;;;5033130;28;20077;-71
2021/06/03 12:41:03;;;;;;;2.80;1.80;;;;;;;;;;5033791;28;20076;-72
2021/06/03 12:43:34;;;;;;;2.28;1.65;;;;;;;;;;5019569;28;20121;-72
2021/06/03 12:46:01;;;;;;;1.80;1.60;;;;;;;;;;5033750;28;20084;-71
2021/06/03 12:48:30;;;;;;;2.97;1.92;;;;;;;;;;5032894;28;20354;-72
2021/06/03 12:50:59;;;;;;;1.63;1.52;;;;;;;;;;5033399;28;20473;-72
2021/06/03 12:53:26;;;;;;;2.58;1.88;;;;;;;;;;5033393;28;20596;-72
2021/06/03 12:55:52;;;;;;;4.70;2.35;;;;;;;;;;5015621;28;20099;-72
2021/06/03 12:58:23;;;;;;;6.05;2.53;;;;;;;;;;5032092;28;20081;-72
2021/06/03 13:00:50;;;;;;;3.17;2.25;;;;;;;;;;5031948;28;20127;-72
2021/06/03 13:03:19;;;;;;;3.78;2.80;;;;;;;;;;5032998;28;20534;-72
2021/06/03 13:05:48;;;;;;;5.85;3.20;;;;;;;;;;5033197;28;20084;-71
2021/06/03 13:08:15;;;;;;;5.30;2.85;;;;;;;;;;5042542;28;20082;-72
2021/06/03 13:10:41;;;;;;;4.20;2.65;;;;;;;;;;5012091;28;20082;-72
2021/06/03 13:13:10;;;;;;;6.40;3.35;;;;;;;;;;5027871;28;20415;-73
2021/06/03 13:15:43;;;;;;;5.68;3.20;;;;;;;;;;5031673;28;20495;-73
2021/06/03 13:18:10;;;;;;;4.95;2.63;;;;;;;;;;5031346;28;20045;-72
2021/06/03 13:20:54;;;;;;;5.13;2.90;;;;;;;;;;5030093;28;20511;-72
2021/06/03 13:23:25;;;;;;;5.20;3.10;;;;;;;;;;5032621;28;20050;-72
2021/06/03 13:25:54;;;;;;;4.32;2.90;;;;;;;;;;5032947;28;20073;-72
2021/06/03 13:28:26;;;;;;;4.38;2.95;;;;;;;;;;5037596;28;20136;-71
2021/06/03 13:30:55;;;;;;;3.70;3.33;;;;;;;;;;5029956;28;20053;-74
2021/06/03 13:33:28;;;;;;;3.80;3.50;;;;;;;;;;5030558;28;20341;-71
2021/06/03 13:36:00;;;;;;;5.43;3.50;;;;;;;;;;5030021;28;20132;-72
2021/06/03 13:38:27;;;;;;;5.53;3.97;;;;;;;;;;5048155;28;20335;-72
2021/06/03 13:40:54;;;;;;;5.05;4.03;;;;;;;;;;5047878;28;20089;-71
2021/06/03 13:43:24;;;;;;;8.75;3.75;;;;;;;;;;5031254;28;20457;-71
2021/06/03 13:45:53;;;;;;;4.55;3.50;;;;;;;;;;5031211;28;20073;-72
2021/06/03 13:48:27;;;;;;;3.03;2.75;;;;;;;;;;5031501;28;20115;-71
2021/06/03 13:51:02;;;;;;;5.10;3.60;;;;;;;;;;5029384;28;20057;-71
2021/06/03 13:53:32;;;;;;;2.78;2.38;;;;;;;;;;5031107;28;20046;-70
2021/06/03 13:56:16;;;;;;;3.40;3.08;;;;;;;;;;5031947;28;20095;-70
2021/06/03 13:59:07;;;;;;;5.55;2.70;;;;;;;;;;5048172;28;20053;-70
2021/06/03 14:01:40;;;;;;;5.45;2.80;;;;;;;;;;5031363;28;20103;-70
2021/06/03 14:04:16;;;;;;;6.53;2.88;;;;;;;;;;5046059;28;20049;-70
2021/06/03 14:06:45;;;;;;;6.53;2.72;;;;;;;;;;5049035;28;20049;-70
2021/06/03 14:14:26;;;;;;;2.88;2.45;;;;;;;;;;5029535;28;20053;-70
2021/06/03 14:16:58;;;;;;;4.85;2.45;;;;;;;;;;5026443;28;20092;-70
2021/06/03 14:19:32;;;;;;;3.47;2.63;;;;;;;;;;5025832;28;20046;-71
2021/06/03 14:22:21;;;;;;;2.83;2.47;;;;;;;;;;5027615;28;20108;-73
2021/06/03 14:25:10;;;;;;;7.50;3.08;;;;;;;;;;5027016;28;20055;-71
2021/06/03 14:27:43;;;;;;;3.72;2.30;;;;;;;;;;5030761;28;20484;-72
2021/06/03 14:30:13;;;;;;;2.58;2.30;;;;;;;;;;4999124;28;20052;-70
2021/06/03 14:32:46;;;;;;;4.53;3.00;;;;;;;;;;5030827;28;20084;-70
2021/06/03 14:35:12;;;;;;;4.85;2.75;;;;;;;;;;5044907;28;20115;-71
2021/06/03 14:37:58;;;;;;;3.20;2.35;;;;;;;;;;5027703;28;20551;-71
2021/06/03 14:40:34;;;;;;;3.47;2.38;;;;;;;;;;5024336;28;20045;-71
2021/06/03 14:43:06;;;;;;;4.78;3.08;;;;;;;;;;5028598;28;20140;-71
2021/06/03 14:45:33;;;;;;;2.92;2.63;;;;;;;;;;5030440;28;20084;-70
2021/06/03 14:48:00;;;;;;;2.88;2.28;;;;;;;;;;5030684;28;20045;-70
2021/06/03 14:50:32;;;;;;;3.42;3.05;;;;;;;;;;5045820;28;20061;-70
2021/06/03 14:53:00;;;;;;;3.70;2.70;;;;;;;;;;5030676;28;20050;-71
2021/06/03 14:55:29;;;;;;;2.70;2.50;;;;;;;;;;5045599;28;20296;-71
2021/06/03 14:57:57;;;;;;;2.20;2.00;;;;;;;;;;5033073;28;20049;-71
2021/06/03 15:00:38;;;;;;;2.75;2.10;;;;;;;;;;5034270;28;20079;-70
2021/06/03 15:03:05;;;;;;;3.55;2.15;;;;;;;;;;5033906;28;20144;-71
2021/06/03 15:05:32;;;;;;;2.67;1.98;;;;;;;;;;5034204;28;20492;-71
2021/06/03 15:07:59;;;;;;;3.60;2.10;;;;;;;;;;5034288;28;20140;-72